Aérodrome :
LOGIN :

S'inscrire | Disclaimer

   EN    FR    IT 

 










Légende :    VFR   VFR Marginal   IFR   IFR Intensif   IFR Très Intensif
Visi : 
Plafond : 
>= 8 km
>= 3000ft
5 à 8 km
1000 à 3000 ft
1500m à 5 km
500 à 1000 ft
800 à 1500m
200 à 500 ft
< 800m
< 200 ft
Symboles :   Orages  Brouillard  Fortes neiges  Fortes précipitations  Vent > 20 kt
SIGMETs :   Divers  Orages  Givrage  Turbulence  Onde Orograph.  Cendres Volcan.







- Altitude de l'aérodrome : 197 ft
- Code IATA : XOG
- Voir les cartes d'approche


LFMO - Orange

DERNIER METAR :
  • 220130Z AUTO 35016KT CAVOK 21/13 Q1016 BECMG 35020G35KT

METARs EXPIRÉS :
  • 220100Z AUTO 34021KT CAVOK 22/14 Q1016 BECMG 35020G35KT
  • 220030Z AUTO 34021KT CAVOK 22/14 Q1016 BECMG 35020G35KT
  • 220000Z AUTO 36019KT CAVOK 23/14 Q1016 BECMG 35015G25KT
  • 212330Z AUTO 36019G29KT CAVOK 23/16 Q1016 NOSIG
  • 212300Z AUTO 36021KT CAVOK 24/16 Q1016 BECMG 35015G25KT

TAF TAF LFMO
Valide du 21 à 21h jusqu'au 22 à 21h UTC


212000Z 2121/2221 32010KT CAVOK
BECMG 2122/2124 35015G25KT
BECMG 2202/2204 35020G35KT
TEMPO 2210/2215 35025G40KT
PROB30
TEMPO 2216/2221 36030G45KT
Pas de NOTAMs connus pour ce terrain.



MET'MAP, la Météo Aéronautique d'un coup d'oeil ! - Copyright ORBIFLY Décembre 2007 - Disclaimer

ORBIFLY MET'MAP TEAM :

Programmation & Développement : Alexandra Zaïnal
Conception & Développement : Baudouin d'Aumeries
Co-Programmation & Développement : Marc-Olivier Méhu
Soutien technique & logistique : Manuel Goepfert

Contact : metmap@orbifly.com




SOURCES & CREDITS :

   NOAA